CPA939 VHHH-RPLL
Flight info
| Callsign | CPA939 |
|---|---|
| Flight time | N/A |
| Altitude | 33000 |
| Route | DALOL1X/07R DALOL V642 NOMAN A461 AVMUP W16 TADEL TADE3R/06 |
| Aircraft | A359/H-SDE2E3GHIJ1J3J4J5LM1ORWXYZ/LB1D1 |
Departure
| Time | N/A |
|---|---|
| Airport | Hong Kong International Airport (VHHH) |
Arrival
| Time | 2026-05-01 09:41 |
|---|---|
| Airport | Ninoy Aquino International Airport (RPLL) |
| Time | Latitude | Longitude | Altitude | Speed | Heading |
|---|---|---|---|---|---|
| 2026-05-01 08:43 | 19.14135 | 117.66092 | 32864 ft | 482 kts | 133° |
| 2026-05-01 08:43 | 19.09613 | 117.71287 | 32863 ft | 482 kts | 133° |
| 2026-05-01 08:44 | 19.05086 | 117.76463 | 32863 ft | 482 kts | 133° |
| 2026-05-01 08:44 | 19.00529 | 117.81658 | 32862 ft | 483 kts | 133° |
| 2026-05-01 08:45 | 18.95977 | 117.86845 | 32862 ft | 485 kts | 133° |
| 2026-05-01 08:45 | 18.91393 | 117.92064 | 32862 ft | 487 kts | 133° |
| 2026-05-01 08:46 | 18.86762 | 117.97314 | 32862 ft | 490 kts | 133° |
| 2026-05-01 08:46 | 18.82134 | 118.02543 | 32863 ft | 491 kts | 133° |
| 2026-05-01 08:47 | 18.77491 | 118.07800 | 32863 ft | 491 kts | 132° |
| 2026-05-01 08:47 | 18.72857 | 118.13052 | 32863 ft | 491 kts | 132° |
| 2026-05-01 08:48 | 18.68227 | 118.18298 | 32863 ft | 491 kts | 132° |
| 2026-05-01 08:48 | 18.63594 | 118.23543 | 32863 ft | 490 kts | 132° |
| 2026-05-01 08:49 | 18.58953 | 118.28794 | 32863 ft | 491 kts | 132° |
| 2026-05-01 08:49 | 18.54340 | 118.34008 | 32863 ft | 491 kts | 132° |
| 2026-05-01 08:50 | 18.49697 | 118.39253 | 32863 ft | 491 kts | 132° |
| 2026-05-01 08:50 | 18.45064 | 118.44479 | 32863 ft | 491 kts | 132° |
| 2026-05-01 08:51 | 18.40419 | 118.49717 | 32863 ft | 491 kts | 132° |
| 2026-05-01 08:51 | 18.35804 | 118.54917 | 32863 ft | 491 kts | 132° |
| 2026-05-01 08:52 | 18.31201 | 118.60098 | 32863 ft | 491 kts | 132° |
| 2026-05-01 08:52 | 18.26630 | 118.65240 | 32863 ft | 491 kts | 133° |
| 2026-05-01 08:53 | 18.16904 | 118.76209 | 32863 ft | 491 kts | 133° |
| 2026-05-01 08:54 | 18.12239 | 118.81442 | 32863 ft | 491 kts | 133° |
| 2026-05-01 08:54 | 18.07666 | 118.86562 | 32864 ft | 489 kts | 133° |
| 2026-05-01 08:55 | 18.02889 | 118.91576 | 32864 ft | 488 kts | 137° |
| 2026-05-01 08:55 | 17.97678 | 118.96094 | 32865 ft | 487 kts | 142° |
| 2026-05-01 08:56 | 17.92074 | 119.00048 | 32864 ft | 488 kts | 147° |
| 2026-05-01 08:56 | 17.86216 | 119.03497 | 32864 ft | 488 kts | 149° |
| 2026-05-01 08:57 | 17.80289 | 119.06903 | 32863 ft | 488 kts | 149° |
| 2026-05-01 08:57 | 17.74359 | 119.10323 | 32863 ft | 488 kts | 149° |
| 2026-05-01 08:58 | 17.68470 | 119.13727 | 32863 ft | 488 kts | 149° |
| 2026-05-01 08:58 | 17.62559 | 119.17144 | 32863 ft | 488 kts | 149° |
| 2026-05-01 08:59 | 17.56636 | 119.20567 | 32863 ft | 488 kts | 149° |
| 2026-05-01 08:59 | 17.50816 | 119.23927 | 32863 ft | 488 kts | 149° |
| 2026-05-01 09:00 | 17.44964 | 119.27306 | 32863 ft | 488 kts | 149° |
| 2026-05-01 09:00 | 17.39083 | 119.30697 | 32863 ft | 487 kts | 149° |
| 2026-05-01 09:01 | 17.33157 | 119.34112 | 32863 ft | 487 kts | 149° |
| 2026-05-01 09:01 | 17.27261 | 119.37507 | 32863 ft | 487 kts | 149° |
| 2026-05-01 09:02 | 17.21376 | 119.40893 | 32863 ft | 487 kts | 149° |
| 2026-05-01 09:02 | 17.15435 | 119.44308 | 32863 ft | 487 kts | 149° |
| 2026-05-01 09:03 | 17.09521 | 119.47706 | 32896 ft | 486 kts | 149° |
| 2026-05-01 09:03 | 17.03670 | 119.51066 | 32969 ft | 487 kts | 149° |
| 2026-05-01 09:04 | 16.97736 | 119.54470 | 33021 ft | 488 kts | 149° |
| 2026-05-01 09:04 | 16.91945 | 119.57790 | 33050 ft | 489 kts | 149° |
| 2026-05-01 09:05 | 16.86257 | 119.61039 | 33064 ft | 488 kts | 149° |
| 2026-05-01 09:05 | 16.80352 | 119.64400 | 33072 ft | 488 kts | 149° |
| 2026-05-01 09:06 | 16.74630 | 119.67683 | 33076 ft | 488 kts | 149° |
| 2026-05-01 09:06 | 16.68864 | 119.71003 | 33078 ft | 488 kts | 149° |
| 2026-05-01 09:07 | 16.63064 | 119.74326 | 33080 ft | 488 kts | 149° |
| 2026-05-01 09:07 | 16.57159 | 119.77701 | 33080 ft | 488 kts | 149° |
| 2026-05-01 09:08 | 16.51259 | 119.81068 | 33080 ft | 488 kts | 149° |
| 2026-05-01 09:08 | 16.45351 | 119.84435 | 33080 ft | 488 kts | 149° |
| 2026-05-01 09:09 | 16.39484 | 119.87777 | 33080 ft | 488 kts | 149° |
| 2026-05-01 09:09 | 16.33705 | 119.91066 | 33080 ft | 488 kts | 149° |
| 2026-05-01 09:10 | 16.28019 | 119.94300 | 32891 ft | 489 kts | 149° |
| 2026-05-01 09:10 | 16.25106 | 119.95956 | 32645 ft | 487 kts | 149° |
| 2026-05-01 09:10 | 16.22362 | 119.97515 | 32411 ft | 485 kts | 149° |
| 2026-05-01 09:11 | 16.19450 | 119.99169 | 32033 ft | 484 kts | 149° |
| 2026-05-01 09:11 | 16.16590 | 120.00793 | 31492 ft | 483 kts | 149° |
| 2026-05-01 09:11 | 16.13650 | 120.02461 | 30795 ft | 484 kts | 149° |
| 2026-05-01 09:11 | 16.10748 | 120.04109 | 30007 ft | 486 kts | 149° |
| 2026-05-01 09:12 | 16.07921 | 120.05714 | 29146 ft | 488 kts | 149° |
| 2026-05-01 09:12 | 16.05041 | 120.07349 | 28247 ft | 491 kts | 149° |
| 2026-05-01 09:12 | 16.02168 | 120.08978 | 27677 ft | 486 kts | 149° |
| 2026-05-01 09:12 | 15.99304 | 120.10600 | 27071 ft | 483 kts | 149° |
| 2026-05-01 09:13 | 15.96357 | 120.12270 | 26377 ft | 480 kts | 149° |
| 2026-05-01 09:13 | 15.93444 | 120.13921 | 25680 ft | 479 kts | 149° |
| 2026-05-01 09:13 | 15.90584 | 120.15541 | 24980 ft | 477 kts | 149° |
| 2026-05-01 09:13 | 15.88157 | 120.16913 | 24420 ft | 475 kts | 149° |
| 2026-05-01 09:14 | 15.85030 | 120.18673 | 23770 ft | 470 kts | 149° |
| 2026-05-01 09:14 | 15.82242 | 120.20243 | 23234 ft | 465 kts | 149° |
| 2026-05-01 09:14 | 15.79488 | 120.21797 | 22710 ft | 461 kts | 149° |
| 2026-05-01 09:14 | 15.76714 | 120.23365 | 22182 ft | 456 kts | 149° |
| 2026-05-01 09:15 | 15.73948 | 120.24931 | 21655 ft | 452 kts | 149° |
| 2026-05-01 09:15 | 15.71212 | 120.26478 | 21136 ft | 448 kts | 149° |
| 2026-05-01 09:15 | 15.68525 | 120.27997 | 20626 ft | 444 kts | 149° |
| 2026-05-01 09:15 | 15.65883 | 120.29488 | 20125 ft | 441 kts | 150° |
| 2026-05-01 09:16 | 15.63209 | 120.30997 | 19624 ft | 437 kts | 150° |
| 2026-05-01 09:16 | 15.60557 | 120.32494 | 19129 ft | 434 kts | 150° |
| 2026-05-01 09:16 | 15.57982 | 120.33947 | 18648 ft | 431 kts | 150° |
| 2026-05-01 09:17 | 15.52757 | 120.36895 | 17677 ft | 425 kts | 150° |
| 2026-05-01 09:17 | 15.50197 | 120.38339 | 17204 ft | 422 kts | 150° |
| 2026-05-01 09:17 | 15.45332 | 120.41079 | 16307 ft | 417 kts | 150° |
| 2026-05-01 09:18 | 15.42831 | 120.42400 | 15851 ft | 414 kts | 154° |
| 2026-05-01 09:18 | 15.37691 | 120.44497 | 14954 ft | 409 kts | 162° |
| 2026-05-01 09:19 | 15.32313 | 120.46199 | 14048 ft | 404 kts | 163° |
| 2026-05-01 09:19 | 15.29637 | 120.47036 | 13595 ft | 401 kts | 163° |
| 2026-05-01 09:19 | 15.27004 | 120.47863 | 13151 ft | 398 kts | 163° |
| 2026-05-01 09:20 | 15.21749 | 120.49525 | 12269 ft | 394 kts | 164° |
| 2026-05-01 09:20 | 15.16484 | 120.51193 | 12037 ft | 405 kts | 164° |
| 2026-05-01 09:21 | 15.11294 | 120.52839 | 11392 ft | 391 kts | 164° |
| 2026-05-01 09:21 | 15.08801 | 120.53630 | 11042 ft | 383 kts | 163° |
| 2026-05-01 09:21 | 15.04027 | 120.55146 | 10516 ft | 365 kts | 163° |
| 2026-05-01 09:22 | 14.99378 | 120.56625 | 10351 ft | 338 kts | 163° |
| 2026-05-01 09:22 | 14.95089 | 120.57983 | 10182 ft | 314 kts | 164° |
| 2026-05-01 09:23 | 14.93043 | 120.58629 | 9895 ft | 310 kts | 164° |
| 2026-05-01 09:23 | 14.89072 | 120.59879 | 9346 ft | 303 kts | 164° |
| 2026-05-01 09:24 | 14.85105 | 120.61124 | 8843 ft | 294 kts | 164° |
| 2026-05-01 09:24 | 14.83199 | 120.61725 | 8634 ft | 289 kts | 163° |
| 2026-05-01 09:24 | 14.79435 | 120.62914 | 8134 ft | 282 kts | 163° |
| 2026-05-01 09:25 | 14.75722 | 120.64087 | 7625 ft | 277 kts | 163° |
| 2026-05-01 09:25 | 14.72054 | 120.65250 | 7078 ft | 275 kts | 163° |
| 2026-05-01 09:26 | 14.70291 | 120.65824 | 6880 ft | 270 kts | 160° |
| 2026-05-01 09:26 | 14.66960 | 120.67457 | 6427 ft | 263 kts | 152° |
| 2026-05-01 09:26 | 14.65352 | 120.68327 | 6203 ft | 258 kts | 152° |
| 2026-05-01 09:27 | 14.62272 | 120.69955 | 5445 ft | 244 kts | 153° |
| 2026-05-01 09:27 | 14.60827 | 120.70705 | 5132 ft | 236 kts | 153° |
| 2026-05-01 09:27 | 14.59365 | 120.71458 | 4809 ft | 241 kts | 153° |
| 2026-05-01 09:28 | 14.57812 | 120.72255 | 4525 ft | 255 kts | 153° |
| 2026-05-01 09:28 | 14.56229 | 120.73066 | 4273 ft | 255 kts | 153° |
| 2026-05-01 09:28 | 14.54625 | 120.73885 | 4041 ft | 266 kts | 153° |
| 2026-05-01 09:28 | 14.52952 | 120.74741 | 3986 ft | 272 kts | 153° |
| 2026-05-01 09:29 | 14.49562 | 120.76471 | 3917 ft | 277 kts | 153° |
| 2026-05-01 09:29 | 14.47818 | 120.77361 | 3864 ft | 277 kts | 153° |
| 2026-05-01 09:30 | 14.44389 | 120.79110 | 3713 ft | 276 kts | 153° |
| 2026-05-01 09:30 | 14.42666 | 120.79988 | 3511 ft | 276 kts | 153° |
| 2026-05-01 09:30 | 14.39263 | 120.81724 | 3219 ft | 273 kts | 153° |
| 2026-05-01 09:31 | 14.37574 | 120.82586 | 3216 ft | 274 kts | 153° |
| 2026-05-01 09:31 | 14.35822 | 120.83355 | 3200 ft | 275 kts | 167° |
| 2026-05-01 09:31 | 14.32137 | 120.82910 | 3215 ft | 263 kts | 201° |
| 2026-05-01 09:32 | 14.30638 | 120.81898 | 3211 ft | 259 kts | 229° |
| 2026-05-01 09:32 | 14.28749 | 120.78816 | 3199 ft | 253 kts | 263° |
| 2026-05-01 09:32 | 14.28675 | 120.77031 | 3224 ft | 251 kts | 275° |
| 2026-05-01 09:33 | 14.28809 | 120.75234 | 3217 ft | 250 kts | 281° |
| 2026-05-01 09:33 | 14.29470 | 120.73645 | 3193 ft | 251 kts | 313° |
| 2026-05-01 09:33 | 14.32765 | 120.72589 | 2946 ft | 255 kts | 15° |
| 2026-05-01 09:34 | 14.34285 | 120.73368 | 2816 ft | 241 kts | 45° |
| 2026-05-01 09:34 | 14.35283 | 120.74692 | 2721 ft | 224 kts | 62° |
| 2026-05-01 09:34 | 14.36703 | 120.77265 | 2499 ft | 196 kts | 64° |
| 2026-05-01 09:35 | 14.37365 | 120.78456 | 2401 ft | 192 kts | 64° |
| 2026-05-01 09:35 | 14.38721 | 120.80830 | 2331 ft | 193 kts | 63° |
| 2026-05-01 09:35 | 14.39400 | 120.81996 | 2330 ft | 193 kts | 63° |
| 2026-05-01 09:36 | 14.40089 | 120.83170 | 2334 ft | 193 kts | 62° |
| 2026-05-01 09:36 | 14.40785 | 120.84354 | 2338 ft | 193 kts | 62° |
| 2026-05-01 09:36 | 14.41450 | 120.85483 | 2339 ft | 193 kts | 62° |
| 2026-05-01 09:36 | 14.42158 | 120.86633 | 2338 ft | 194 kts | 59° |
| 2026-05-01 09:37 | 14.42919 | 120.87781 | 2330 ft | 193 kts | 60° |
| 2026-05-01 09:37 | 14.44250 | 120.90025 | 2224 ft | 172 kts | 64° |
| 2026-05-01 09:37 | 14.44827 | 120.91067 | 2057 ft | 169 kts | 64° |
| 2026-05-01 09:38 | 14.45955 | 120.93115 | 1616 ft | 160 kts | 64° |
| 2026-05-01 09:38 | 14.46496 | 120.94089 | 1412 ft | 156 kts | 64° |
| 2026-05-01 09:38 | 14.47026 | 120.95046 | 1211 ft | 156 kts | 64° |
| 2026-05-01 09:39 | 14.48044 | 120.96877 | 820 ft | 146 kts | 64° |
| 2026-05-01 09:39 | 14.48539 | 120.97771 | 633 ft | 145 kts | 64° |
| 2026-05-01 09:39 | 14.49032 | 120.98659 | 446 ft | 145 kts | 64° |
| 2026-05-01 09:40 | 14.49524 | 120.99544 | 256 ft | 143 kts | 64° |
| 2026-05-01 09:40 | 14.50420 | 121.01166 | 89 ft | 108 kts | 61° |
| 2026-05-01 09:40 | 14.50671 | 121.01632 | 89 ft | 59 kts | 63° |
| 2026-05-01 09:41 | 14.50868 | 121.01961 | 89 ft | 49 kts | 62° |
| 2026-05-01 09:41 | 14.51158 | 121.02485 | 89 ft | 23 kts | 58° |
| 2026-05-01 09:41 | 14.51235 | 121.02544 | 89 ft | 8 kts | 358° |
| 2026-05-01 09:42 | 14.51264 | 121.02536 | 89 ft | 5 kts | 332° |
| 2026-05-01 09:42 | 14.51295 | 121.02489 | 89 ft | 10 kts | 276° |
| 2026-05-01 09:42 | 14.51204 | 121.02280 | 89 ft | 18 kts | 240° |
| 2026-05-01 09:43 | 14.51071 | 121.02031 | 89 ft | 9 kts | 261° |
| 2026-05-01 09:43 | 14.51098 | 121.01961 | 89 ft | 13 kts | 312° |
| 2026-05-01 09:43 | 14.51175 | 121.01881 | 89 ft | 18 kts | 315° |
| 2026-05-01 09:44 | 14.51355 | 121.01694 | 89 ft | 15 kts | 314° |
| 2026-05-01 09:44 | 14.51431 | 121.01615 | 89 ft | 15 kts | 315° |
| 2026-05-01 09:44 | 14.51497 | 121.01548 | 89 ft | 10 kts | 315° |
| 2026-05-01 09:45 | 14.51542 | 121.01505 | 89 ft | 3 kts | 344° |
| 2026-05-01 09:45 | 14.51592 | 121.01541 | 89 ft | 5 kts | 43° |
| 2026-05-01 09:45 | 14.51614 | 121.01563 | 89 ft | 0 kts | 45° |